Time;durP1;ratioP1;P1;durP2;ratioP2;P2;SDS_P1;SDS_P2;PMS_P1;PMS_P2;Temp;Humidity;BMP_temperature;BMP_pressure;BME280_temperature;BME280_humidity;BME280_pressure;Samples;Min_cycle;Max_cycle;Signal;HPM_P1;HPM_P2
2024/03/13 00:00:58;;;;;;;79.97;36.60;;;;;;;;;;5081437;28;20452;-66
2024/03/13 00:03:24;;;;;;;73.83;37.47;;;;;;;;;;5072532;28;20476;-66
2024/03/13 00:05:53;;;;;;;73.43;37.53;;;;;;;;;;5076613;28;20500;-66
2024/03/13 00:08:21;;;;;;;83.20;39.93;;;;;;;;;;5081094;28;20443;-65
2024/03/13 00:10:48;;;;;;;83.27;41.20;;;;;;;;;;5084757;28;20482;-66
2024/03/13 00:13:15;;;;;;;82.80;40.70;;;;;;;;;;5079144;28;20460;-65
2024/03/13 00:15:42;;;;;;;92.83;41.27;;;;;;;;;;5078374;28;20862;-65
2024/03/13 00:18:09;;;;;;;87.60;43.27;;;;;;;;;;5078270;28;20518;-65
2024/03/13 00:20:35;;;;;;;93.20;42.90;;;;;;;;;;5082128;28;20511;-65
2024/03/13 00:23:03;;;;;;;88.97;39.83;;;;;;;;;;5080823;28;20486;-64
2024/03/13 00:25:29;;;;;;;85.50;42.47;;;;;;;;;;5081591;28;20901;-64
2024/03/13 00:27:56;;;;;;;85.30;42.90;;;;;;;;;;5079379;28;20543;-65
2024/03/13 00:30:22;;;;;;;89.90;41.53;;;;;;;;;;5083239;28;20458;-65
2024/03/13 00:32:52;;;;;;;83.17;41.10;;;;;;;;;;5078328;28;20444;-65
2024/03/13 00:35:20;;;;;;;83.50;44.90;;;;;;;;;;5082542;28;20456;-65
2024/03/13 00:37:47;;;;;;;83.40;43.20;;;;;;;;;;5078971;28;20451;-65
2024/03/13 00:40:14;;;;;;;71.47;40.40;;;;;;;;;;5087772;28;20506;-65
2024/03/13 00:42:42;;;;;;;87.90;43.60;;;;;;;;;;5084330;28;20509;-65
2024/03/13 00:45:09;;;;;;;88.43;41.73;;;;;;;;;;5094128;28;20470;-66
2024/03/13 00:47:35;;;;;;;87.60;43.50;;;;;;;;;;5074580;28;20452;-66
2024/03/13 00:50:03;;;;;;;82.03;43.07;;;;;;;;;;5065899;28;21025;-65
2024/03/13 00:52:30;;;;;;;94.23;45.50;;;;;;;;;;5075057;28;20503;-66
2024/03/13 00:54:56;;;;;;;92.47;45.63;;;;;;;;;;5083013;28;20486;-66
2024/03/13 00:57:24;;;;;;;86.70;45.80;;;;;;;;;;5077719;28;20510;-66
2024/03/13 00:59:50;;;;;;;91.93;47.57;;;;;;;;;;5080488;28;20856;-66
2024/03/13 01:02:17;;;;;;;102.93;47.60;;;;;;;;;;5079355;28;21199;-66
2024/03/13 01:04:45;;;;;;;92.40;47.33;;;;;;;;;;5078819;28;20490;-65
2024/03/13 01:07:12;;;;;;;114.27;49.70;;;;;;;;;;5074367;28;20524;-66
2024/03/13 01:09:38;;;;;;;94.07;45.10;;;;;;;;;;5080653;28;20784;-65
2024/03/13 01:12:06;;;;;;;107.23;48.80;;;;;;;;;;5080780;28;20497;-65
2024/03/13 01:14:33;;;;;;;101.80;46.67;;;;;;;;;;5081573;28;20470;-65
2024/03/13 01:17:02;;;;;;;102.70;49.17;;;;;;;;;;5083419;28;20455;-65
2024/03/13 01:19:30;;;;;;;107.57;49.17;;;;;;;;;;5083896;28;20510;-65
2024/03/13 01:22:03;;;;;;;102.97;50.07;;;;;;;;;;5079662;28;20459;-65
2024/03/13 01:24:31;;;;;;;99.03;46.00;;;;;;;;;;5086795;28;20451;-65
2024/03/13 01:26:58;;;;;;;102.33;47.70;;;;;;;;;;5084812;28;20492;-65
2024/03/13 01:29:24;;;;;;;94.30;48.70;;;;;;;;;;5082539;28;20470;-65
2024/03/13 01:31:52;;;;;;;103.87;48.93;;;;;;;;;;5076742;28;20462;-65
2024/03/13 01:34:20;;;;;;;101.27;48.60;;;;;;;;;;5082743;28;20599;-66
2024/03/13 01:39:31;;;;;;;114.70;49.17;;;;;;;;;;5076013;28;20474;-66
2024/03/13 01:56:04;;;;;;;97.13;46.23;;;;;;;;;;5075961;28;20439;-66
2024/03/13 01:58:40;;;;;;;106.80;49.57;;;;;;;;;;5083001;28;20577;-65
2024/03/13 02:03:52;;;;;;;102.07;48.00;;;;;;;;;;5076367;28;20455;-65
2024/03/13 02:06:18;;;;;;;95.70;45.77;;;;;;;;;;5080027;28;20904;-65
2024/03/13 02:08:45;;;;;;;94.37;46.90;;;;;;;;;;5074252;28;20544;-65
2024/03/13 02:11:12;;;;;;;107.50;47.07;;;;;;;;;;5080183;28;20487;-65
2024/03/13 02:13:39;;;;;;;97.43;46.00;;;;;;;;;;5087132;28;20502;-65
2024/03/13 02:16:07;;;;;;;99.13;46.00;;;;;;;;;;5080417;28;20491;-65
2024/03/13 02:18:34;;;;;;;98.80;46.33;;;;;;;;;;5080001;28;20479;-65
2024/03/13 02:21:02;;;;;;;98.47;45.27;;;;;;;;;;5075817;28;20475;-65
2024/03/13 02:23:28;;;;;;;93.97;45.53;;;;;;;;;;5074617;28;20444;-65
2024/03/13 02:25:55;;;;;;;86.43;45.33;;;;;;;;;;5078098;28;20455;-65
2024/03/13 02:28:32;;;;;;;86.60;43.93;;;;;;;;;;5062143;28;20837;-65
2024/03/13 02:30:58;;;;;;;86.33;42.50;;;;;;;;;;5064453;28;20527;-64
2024/03/13 02:33:25;;;;;;;97.47;43.80;;;;;;;;;;5061871;28;20444;-65
2024/03/13 02:35:51;;;;;;;78.27;41.53;;;;;;;;;;5060845;28;20493;-65
2024/03/13 02:38:18;;;;;;;79.90;39.20;;;;;;;;;;5079607;28;20554;-64
2024/03/13 02:40:44;;;;;;;94.00;41.33;;;;;;;;;;5055230;28;20809;-65
2024/03/13 02:43:10;;;;;;;89.03;39.43;;;;;;;;;;5078491;28;20523;-64
2024/03/13 02:45:37;;;;;;;104.03;42.80;;;;;;;;;;5074045;28;20499;-66
2024/03/13 02:48:05;;;;;;;93.03;42.13;;;;;;;;;;5061407;28;20903;-64
2024/03/13 02:50:32;;;;;;;87.07;42.30;;;;;;;;;;5060662;28;20475;-65
2024/03/13 02:52:58;;;;;;;100.13;44.50;;;;;;;;;;5064722;28;20547;-66
2024/03/13 02:55:24;;;;;;;86.43;41.33;;;;;;;;;;5054526;28;20519;-65
2024/03/13 02:57:51;;;;;;;87.57;41.67;;;;;;;;;;5053705;28;21088;-65
2024/03/13 03:00:17;;;;;;;98.53;41.67;;;;;;;;;;5039987;28;20489;-65
2024/03/13 03:02:44;;;;;;;98.77;44.10;;;;;;;;;;5034443;28;20496;-65
2024/03/13 03:05:10;;;;;;;101.90;43.03;;;;;;;;;;5033919;28;20458;-65
2024/03/13 03:07:37;;;;;;;101.33;43.07;;;;;;;;;;5035555;28;20541;-65
2024/03/13 03:10:03;;;;;;;98.40;42.93;;;;;;;;;;5028902;28;20465;-65
2024/03/13 03:12:30;;;;;;;82.80;41.60;;;;;;;;;;5030992;28;20491;-65
2024/03/13 03:14:56;;;;;;;97.10;42.17;;;;;;;;;;5040818;28;20480;-65
2024/03/13 03:17:23;;;;;;;92.17;42.67;;;;;;;;;;5031334;28;20503;-65
2024/03/13 03:19:51;;;;;;;95.03;42.90;;;;;;;;;;5057235;28;20497;-65
2024/03/13 03:22:17;;;;;;;93.43;41.63;;;;;;;;;;5040832;28;20451;-65
2024/03/13 03:24:44;;;;;;;86.70;39.40;;;;;;;;;;5034161;28;20453;-65
2024/03/13 03:27:10;;;;;;;85.70;40.50;;;;;;;;;;5024263;28;20535;-65
2024/03/13 03:29:37;;;;;;;85.77;39.30;;;;;;;;;;5038777;28;20503;-65
2024/03/13 03:32:03;;;;;;;99.07;41.40;;;;;;;;;;5040650;28;20449;-66
2024/03/13 03:34:29;;;;;;;85.37;40.77;;;;;;;;;;5040640;28;20488;-66
2024/03/13 03:36:56;;;;;;;89.50;40.77;;;;;;;;;;5040048;28;20544;-65
2024/03/13 03:39:25;;;;;;;94.13;41.67;;;;;;;;;;5031980;28;20508;-66
2024/03/13 03:41:51;;;;;;;85.20;41.20;;;;;;;;;;5040887;28;20464;-65
2024/03/13 03:44:18;;;;;;;84.00;40.03;;;;;;;;;;5039944;28;20529;-66
2024/03/13 03:46:44;;;;;;;104.33;43.43;;;;;;;;;;5056587;28;20528;-65
2024/03/13 03:49:11;;;;;;;94.30;42.27;;;;;;;;;;5037680;28;20472;-65
2024/03/13 03:51:37;;;;;;;90.03;40.33;;;;;;;;;;5035914;28;20902;-66
2024/03/13 03:54:05;;;;;;;90.27;42.10;;;;;;;;;;5038585;28;20515;-65
2024/03/13 03:56:32;;;;;;;86.37;39.60;;;;;;;;;;5039633;28;20503;-65
2024/03/13 03:58:58;;;;;;;79.87;38.70;;;;;;;;;;5053677;28;20496;-65
2024/03/13 04:01:25;;;;;;;96.67;41.63;;;;;;;;;;5057418;28;20463;-64
2024/03/13 04:03:52;;;;;;;93.47;41.30;;;;;;;;;;5055658;28;20923;-64
2024/03/13 04:06:18;;;;;;;86.40;39.87;;;;;;;;;;5058384;28;21019;-65
2024/03/13 04:08:45;;;;;;;87.13;40.87;;;;;;;;;;5068276;28;20994;-64
2024/03/13 04:11:11;;;;;;;96.70;41.73;;;;;;;;;;5051499;28;20456;-64
2024/03/13 04:13:38;;;;;;;82.10;41.90;;;;;;;;;;5057718;28;20442;-65
2024/03/13 04:16:05;;;;;;;78.70;39.00;;;;;;;;;;5053077;28;20543;-65
2024/03/13 04:18:32;;;;;;;86.23;39.50;;;;;;;;;;5073642;28;20526;-65
2024/03/13 04:20:59;;;;;;;82.87;37.30;;;;;;;;;;5059823;28;20483;-66
2024/03/13 04:23:25;;;;;;;83.07;39.63;;;;;;;;;;5059772;28;20491;-65
2024/03/13 04:25:52;;;;;;;91.90;38.40;;;;;;;;;;5058004;28;20488;-65
2024/03/13 04:28:18;;;;;;;83.90;38.23;;;;;;;;;;5060066;28;20440;-65
2024/03/13 04:30:46;;;;;;;78.50;39.53;;;;;;;;;;5057614;28;20551;-64
2024/03/13 04:33:12;;;;;;;87.40;39.07;;;;;;;;;;5060293;28;20482;-65
2024/03/13 04:35:39;;;;;;;84.37;41.43;;;;;;;;;;5055377;28;20483;-65
2024/03/13 04:38:05;;;;;;;87.60;40.10;;;;;;;;;;5053072;28;20444;-64
2024/03/13 04:40:32;;;;;;;83.10;39.73;;;;;;;;;;5059530;28;21097;-65
2024/03/13 04:43:00;;;;;;;78.17;36.67;;;;;;;;;;5047454;28;20448;-65
2024/03/13 04:45:26;;;;;;;87.67;40.10;;;;;;;;;;5058840;28;20470;-66
2024/03/13 04:47:52;;;;;;;87.40;37.77;;;;;;;;;;5057566;28;20851;-65
2024/03/13 04:50:19;;;;;;;81.73;38.80;;;;;;;;;;5055630;28;20487;-64
2024/03/13 04:52:46;;;;;;;85.57;37.20;;;;;;;;;;5057643;28;20527;-65
2024/03/13 04:55:12;;;;;;;61.77;34.20;;;;;;;;;;5056560;28;20492;-64
2024/03/13 04:57:39;;;;;;;70.43;35.27;;;;;;;;;;5058612;28;20506;-65
2024/03/13 05:00:07;;;;;;;83.27;35.93;;;;;;;;;;5056691;28;20487;-64
2024/03/13 05:02:33;;;;;;;79.50;34.80;;;;;;;;;;5076593;28;20833;-64
2024/03/13 05:05:00;;;;;;;85.47;38.83;;;;;;;;;;5060542;28;20532;-65
2024/03/13 05:07:26;;;;;;;74.57;36.50;;;;;;;;;;5059256;28;20479;-64
2024/03/13 05:09:53;;;;;;;71.93;36.70;;;;;;;;;;5061204;28;20472;-64
2024/03/13 05:12:19;;;;;;;75.57;35.67;;;;;;;;;;5057508;28;20452;-64
2024/03/13 05:14:46;;;;;;;76.73;35.77;;;;;;;;;;5074599;28;20491;-63
2024/03/13 05:17:15;;;;;;;74.53;37.03;;;;;;;;;;5058394;28;20502;-64
2024/03/13 05:19:42;;;;;;;73.03;34.70;;;;;;;;;;5074363;28;20471;-65
2024/03/13 05:22:09;;;;;;;74.30;34.90;;;;;;;;;;5078102;28;20471;-65
2024/03/13 05:24:35;;;;;;;73.67;36.50;;;;;;;;;;5059262;28;20455;-64
2024/03/13 05:27:02;;;;;;;71.83;34.83;;;;;;;;;;5062172;28;20447;-65
2024/03/13 05:29:27;;;;;;;68.70;33.87;;;;;;;;;;5062178;28;20968;-65
2024/03/13 05:31:54;;;;;;;59.90;29.90;;;;;;;;;;5058175;28;20448;-65
2024/03/13 05:34:21;;;;;;;64.20;33.50;;;;;;;;;;5063299;28;20245;-65
2024/03/13 05:36:47;;;;;;;67.90;34.57;;;;;;;;;;5061449;28;20448;-64
2024/03/13 05:39:15;;;;;;;66.33;31.77;;;;;;;;;;5066677;28;20510;-65
2024/03/13 05:41:45;;;;;;;57.17;30.30;;;;;;;;;;5051405;28;20464;-65
2024/03/13 05:44:15;;;;;;;58.03;31.13;;;;;;;;;;5062656;28;21065;-65
2024/03/13 05:46:41;;;;;;;59.53;31.37;;;;;;;;;;5058388;28;20491;-65
2024/03/13 05:49:08;;;;;;;60.13;31.70;;;;;;;;;;5063963;28;21363;-64
2024/03/13 05:51:34;;;;;;;60.83;31.13;;;;;;;;;;5063727;28;20507;-65
2024/03/13 05:54:01;;;;;;;53.07;28.90;;;;;;;;;;5062498;28;20462;-65
2024/03/13 05:56:27;;;;;;;57.47;31.10;;;;;;;;;;5060070;28;20460;-65
2024/03/13 05:58:54;;;;;;;65.30;32.27;;;;;;;;;;5062373;28;20507;-67
2024/03/13 06:01:26;;;;;;;58.93;31.90;;;;;;;;;;5061219;28;20491;-69
2024/03/13 06:03:53;;;;;;;63.70;32.50;;;;;;;;;;5071265;28;20968;-64
2024/03/13 06:06:20;;;;;;;60.67;33.87;;;;;;;;;;5062459;28;20467;-64
2024/03/13 06:08:47;;;;;;;61.23;33.03;;;;;;;;;;5085388;28;20462;-69
2024/03/13 06:11:14;;;;;;;64.43;33.50;;;;;;;;;;5066535;28;20460;-69
2024/03/13 06:13:41;;;;;;;56.30;30.77;;;;;;;;;;5060457;28;20868;-69
2024/03/13 06:16:09;;;;;;;56.67;33.20;;;;;;;;;;5078024;28;20451;-70
2024/03/13 06:18:35;;;;;;;56.40;30.93;;;;;;;;;;5062897;28;20496;-69
2024/03/13 06:21:03;;;;;;;57.80;30.67;;;;;;;;;;5060904;28;20508;-70
2024/03/13 06:23:29;;;;;;;59.60;32.57;;;;;;;;;;5079699;28;20812;-67
2024/03/13 06:25:57;;;;;;;61.50;32.30;;;;;;;;;;5058190;28;20998;-69
2024/03/13 06:31:07;;;;;;;53.80;30.37;;;;;;;;;;5076088;28;20553;-69
2024/03/13 06:33:34;;;;;;;49.03;30.67;;;;;;;;;;5075777;28;20527;-70
2024/03/13 06:36:00;;;;;;;55.23;30.97;;;;;;;;;;5054826;28;20531;-70
2024/03/13 06:38:27;;;;;;;54.00;30.57;;;;;;;;;;5077356;28;20551;-70
2024/03/13 06:40:53;;;;;;;50.10;29.60;;;;;;;;;;5060847;28;20979;-70
2024/03/13 06:43:19;;;;;;;50.90;28.03;;;;;;;;;;5060249;28;20551;-70
2024/03/13 06:45:47;;;;;;;51.50;29.53;;;;;;;;;;5061550;28;20490;-69
2024/03/13 06:48:14;;;;;;;49.90;31.03;;;;;;;;;;5060625;28;20440;-74
2024/03/13 06:50:41;;;;;;;53.77;29.50;;;;;;;;;;5077002;28;20479;-71
2024/03/13 06:53:08;;;;;;;53.13;31.57;;;;;;;;;;5061266;28;20452;-74
2024/03/13 06:55:35;;;;;;;49.30;27.10;;;;;;;;;;5057581;28;20967;-69
2024/03/13 06:58:01;;;;;;;45.63;28.93;;;;;;;;;;5071982;28;20519;-70
2024/03/13 07:00:28;;;;;;;49.20;27.43;;;;;;;;;;5074837;28;20522;-70
2024/03/13 07:02:55;;;;;;;50.67;29.43;;;;;;;;;;5063328;28;20454;-70
2024/03/13 07:05:22;;;;;;;47.20;27.40;;;;;;;;;;5072731;28;20462;-69
2024/03/13 07:07:49;;;;;;;55.00;29.17;;;;;;;;;;5060014;28;20466;-70
2024/03/13 07:10:15;;;;;;;50.50;30.63;;;;;;;;;;5061678;28;20543;-70
2024/03/13 07:12:42;;;;;;;46.00;28.03;;;;;;;;;;5062135;28;20885;-70
2024/03/13 07:15:10;;;;;;;48.23;29.50;;;;;;;;;;5060145;28;20476;-72
2024/03/13 07:17:36;;;;;;;46.53;26.60;;;;;;;;;;5060423;28;20982;-68
2024/03/13 07:20:03;;;;;;;46.40;28.60;;;;;;;;;;5054566;28;20508;-71
2024/03/13 07:22:30;;;;;;;42.10;27.40;;;;;;;;;;5073663;28;21320;-74
2024/03/13 07:24:58;;;;;;;47.43;26.93;;;;;;;;;;5060380;28;20555;-68
2024/03/13 07:27:24;;;;;;;46.87;28.73;;;;;;;;;;5061229;28;20550;-69
2024/03/13 07:29:51;;;;;;;50.60;29.27;;;;;;;;;;5060079;28;20483;-68
2024/03/13 07:32:17;;;;;;;47.17;27.77;;;;;;;;;;5063061;28;20523;-70
2024/03/13 07:34:44;;;;;;;40.33;24.97;;;;;;;;;;5058487;28;20574;-72
2024/03/13 07:37:11;;;;;;;38.70;24.30;;;;;;;;;;5061949;28;20470;-70
2024/03/13 07:39:38;;;;;;;40.50;23.53;;;;;;;;;;5072490;28;20454;-72
2024/03/13 07:42:06;;;;;;;40.53;23.37;;;;;;;;;;5064274;28;20472;-73
2024/03/13 07:44:33;;;;;;;34.40;21.63;;;;;;;;;;5054596;28;20468;-73
2024/03/13 07:46:59;;;;;;;38.13;23.30;;;;;;;;;;5075005;28;20529;-72
2024/03/13 07:49:26;;;;;;;42.83;22.20;;;;;;;;;;5054411;28;20491;-73
2024/03/13 07:51:57;;;;;;;31.00;21.50;;;;;;;;;;5062148;28;20440;-72
2024/03/13 07:54:24;;;;;;;32.10;20.13;;;;;;;;;;5059791;28;20488;-74
2024/03/13 07:56:52;;;;;;;29.23;19.93;;;;;;;;;;5059112;28;20488;-74
2024/03/13 07:59:18;;;;;;;27.83;20.30;;;;;;;;;;5041615;28;20522;-73
2024/03/13 08:01:45;;;;;;;26.93;18.70;;;;;;;;;;5036034;28;20558;-74
2024/03/13 08:04:12;;;;;;;27.50;18.50;;;;;;;;;;5038886;28;21013;-73
2024/03/13 08:06:38;;;;;;;31.70;19.47;;;;;;;;;;5038642;28;20463;-73
2024/03/13 08:09:05;;;;;;;23.73;16.80;;;;;;;;;;5038206;28;21330;-69
2024/03/13 08:11:32;;;;;;;28.60;17.90;;;;;;;;;;5039072;28;21015;-71
2024/03/13 08:14:01;;;;;;;25.77;17.00;;;;;;;;;;5054192;28;20485;-71
2024/03/13 08:16:27;;;;;;;22.30;15.67;;;;;;;;;;5037865;28;21182;-70
2024/03/13 08:18:54;;;;;;;20.93;12.80;;;;;;;;;;5037881;28;20456;-71
2024/03/13 08:21:20;;;;;;;16.63;12.17;;;;;;;;;;5042385;28;20489;-71
2024/03/13 08:23:47;;;;;;;17.20;11.87;;;;;;;;;;5030251;28;20550;-72
2024/03/13 08:26:15;;;;;;;20.80;13.77;;;;;;;;;;5038843;28;20457;-73
2024/03/13 08:28:42;;;;;;;23.80;12.07;;;;;;;;;;5040024;28;21117;-72
2024/03/13 08:31:08;;;;;;;16.40;14.07;;;;;;;;;;5038081;28;20489;-71
2024/03/13 08:33:35;;;;;;;15.20;9.87;;;;;;;;;;5038489;28;20475;-70
2024/03/13 08:36:02;;;;;;;14.53;10.90;;;;;;;;;;5036587;28;20524;-69
2024/03/13 08:38:29;;;;;;;14.17;10.13;;;;;;;;;;5050357;28;20921;-72
2024/03/13 08:40:55;;;;;;;15.33;10.30;;;;;;;;;;5038476;28;21234;-70
2024/03/13 08:43:23;;;;;;;13.90;9.33;;;;;;;;;;5044023;28;20949;-74
2024/03/13 08:45:50;;;;;;;11.57;10.37;;;;;;;;;;5039923;28;20468;-70
2024/03/13 08:48:16;;;;;;;15.03;11.10;;;;;;;;;;5055946;28;20449;-70
2024/03/13 08:50:43;;;;;;;13.50;11.97;;;;;;;;;;5037958;28;20954;-70
2024/03/13 08:53:13;;;;;;;17.37;10.90;;;;;;;;;;5041654;28;21191;-70
2024/03/13 08:55:40;;;;;;;16.03;11.43;;;;;;;;;;5038865;28;20440;-71
2024/03/13 08:58:06;;;;;;;16.03;10.40;;;;;;;;;;5046135;28;20886;-72
2024/03/13 09:00:33;;;;;;;13.10;9.97;;;;;;;;;;5058877;28;20579;-74
2024/03/13 09:03:01;;;;;;;13.80;10.40;;;;;;;;;;5064625;28;20455;-70
2024/03/13 09:05:28;;;;;;;16.30;10.47;;;;;;;;;;5061638;28;20447;-71
2024/03/13 09:07:54;;;;;;;13.77;9.83;;;;;;;;;;5068477;28;20468;-72
2024/03/13 09:10:21;;;;;;;17.40;10.90;;;;;;;;;;5054838;28;20475;-70
2024/03/13 09:12:47;;;;;;;13.00;10.27;;;;;;;;;;5065038;28;20470;-70
2024/03/13 09:15:14;;;;;;;14.00;10.17;;;;;;;;;;5056195;28;21071;-70
2024/03/13 09:17:41;;;;;;;12.30;9.70;;;;;;;;;;5072980;28;20452;-69
2024/03/13 09:20:07;;;;;;;12.60;9.87;;;;;;;;;;5054571;28;20448;-71
2024/03/13 09:22:34;;;;;;;12.90;9.77;;;;;;;;;;5070851;28;20451;-72
2024/03/13 09:25:00;;;;;;;12.67;9.50;;;;;;;;;;5062231;28;20995;-71
2024/03/13 09:27:27;;;;;;;10.93;9.20;;;;;;;;;;5061619;28;20509;-70
2024/03/13 09:29:53;;;;;;;13.13;9.90;;;;;;;;;;5081938;28;20488;-70
2024/03/13 09:32:21;;;;;;;12.20;9.40;;;;;;;;;;5061499;28;20479;-68
2024/03/13 09:34:47;;;;;;;11.33;9.53;;;;;;;;;;5077121;28;20475;-68
2024/03/13 09:37:17;;;;;;;11.53;9.63;;;;;;;;;;5061563;28;20444;-67
2024/03/13 09:39:43;;;;;;;12.57;10.30;;;;;;;;;;5067309;28;20462;-66
2024/03/13 09:42:10;;;;;;;13.83;9.70;;;;;;;;;;5061711;28;20463;-71
2024/03/13 09:44:37;;;;;;;11.20;9.77;;;;;;;;;;5060942;28;20448;-69
2024/03/13 09:47:05;;;;;;;11.30;9.90;;;;;;;;;;5059396;28;20528;-71
2024/03/13 09:49:31;;;;;;;16.50;10.90;;;;;;;;;;5055430;28;20489;-71
2024/03/13 09:51:58;;;;;;;10.97;9.37;;;;;;;;;;5057248;28;20436;-71
2024/03/13 09:54:24;;;;;;;11.60;10.40;;;;;;;;;;5074006;28;20456;-71
2024/03/13 09:56:51;;;;;;;10.60;9.50;;;;;;;;;;5074522;28;20459;-71
2024/03/13 09:59:17;;;;;;;11.53;10.33;;;;;;;;;;5061376;28;20491;-67
2024/03/13 10:01:44;;;;;;;11.03;10.03;;;;;;;;;;5060683;28;20500;-67
2024/03/13 10:04:12;;;;;;;12.90;10.77;;;;;;;;;;5058148;28;20452;-64
2024/03/13 10:06:39;;;;;;;10.97;9.80;;;;;;;;;;5055571;28;20456;-65
2024/03/13 10:09:11;;;;;;;11.27;10.07;;;;;;;;;;5062360;28;20464;-69
2024/03/13 10:11:38;;;;;;;12.33;10.70;;;;;;;;;;5055563;28;20511;-68
2024/03/13 10:14:05;;;;;;;11.60;9.90;;;;;;;;;;5073644;28;20471;-67
2024/03/13 10:16:31;;;;;;;12.20;11.00;;;;;;;;;;5061715;28;20502;-66
2024/03/13 10:18:59;;;;;;;11.77;10.57;;;;;;;;;;5061953;28;21265;-69
2024/03/13 10:21:26;;;;;;;11.77;10.67;;;;;;;;;;5061835;28;20478;-66
2024/03/13 10:23:52;;;;;;;13.53;12.13;;;;;;;;;;5061553;28;20483;-66
2024/03/13 10:26:20;;;;;;;12.10;10.80;;;;;;;;;;5078301;28;20452;-66
2024/03/13 10:28:47;;;;;;;13.23;11.60;;;;;;;;;;5068072;28;20456;-67
2024/03/13 10:31:15;;;;;;;12.27;10.90;;;;;;;;;;5060224;28;20478;-65
2024/03/13 10:33:42;;;;;;;14.57;10.77;;;;;;;;;;5060389;28;20459;-66
2024/03/13 10:36:08;;;;;;;15.00;11.23;;;;;;;;;;5060454;28;20459;-66
2024/03/13 10:38:35;;;;;;;13.60;9.97;;;;;;;;;;5060452;28;20875;-63
2024/03/13 10:41:01;;;;;;;11.93;10.50;;;;;;;;;;5060329;28;20468;-67
2024/03/13 10:43:30;;;;;;;11.90;10.70;;;;;;;;;;5061426;28;20502;-69
2024/03/13 10:45:57;;;;;;;10.97;9.80;;;;;;;;;;5055947;28;20480;-67
2024/03/13 10:48:23;;;;;;;10.53;9.50;;;;;;;;;;5061148;28;20487;-67
2024/03/13 10:50:50;;;;;;;11.23;9.90;;;;;;;;;;5057263;28;21279;-68
2024/03/13 10:53:16;;;;;;;12.27;9.77;;;;;;;;;;5064011;28;20460;-65
2024/03/13 10:55:43;;;;;;;12.00;10.10;;;;;;;;;;5059759;28;20486;-67
2024/03/13 10:58:11;;;;;;;11.20;9.53;;;;;;;;;;5061601;28;20493;-68
2024/03/13 11:00:38;;;;;;;11.70;9.50;;;;;;;;;;5050796;28;20461;-67
2024/03/13 11:03:05;;;;;;;11.23;9.07;;;;;;;;;;5057540;28;20448;-73
2024/03/13 11:05:32;;;;;;;11.03;10.00;;;;;;;;;;5058504;28;20455;-67
2024/03/13 11:07:59;;;;;;;12.73;10.30;;;;;;;;;;5061530;28;20460;-68
2024/03/13 11:10:26;;;;;;;13.60;10.10;;;;;;;;;;5059872;28;20452;-68
2024/03/13 11:12:52;;;;;;;11.60;10.40;;;;;;;;;;5057413;28;20452;-68
2024/03/13 11:15:19;;;;;;;12.57;10.00;;;;;;;;;;5057010;28;20502;-68
2024/03/13 11:17:49;;;;;;;10.93;9.73;;;;;;;;;;5060170;28;20481;-68
2024/03/13 11:20:17;;;;;;;12.47;10.70;;;;;;;;;;5060276;28;20527;-68
2024/03/13 11:22:43;;;;;;;14.17;10.50;;;;;;;;;;5059275;28;20563;-68
2024/03/13 11:25:12;;;;;;;14.40;9.70;;;;;;;;;;5055620;28;20488;-69
2024/03/13 11:27:38;;;;;;;9.90;8.90;;;;;;;;;;5059529;28;20960;-68
2024/03/13 11:30:06;;;;;;;11.40;9.60;;;;;;;;;;5058479;28;21004;-68
2024/03/13 11:32:34;;;;;;;11.73;10.17;;;;;;;;;;5060588;28;20459;-68
2024/03/13 11:35:01;;;;;;;14.23;10.27;;;;;;;;;;5065351;28;20466;-68
2024/03/13 11:37:32;;;;;;;12.00;10.70;;;;;;;;;;5060239;28;20459;-68
2024/03/13 11:39:59;;;;;;;12.00;10.60;;;;;;;;;;5056617;28;20463;-69
2024/03/13 11:42:29;;;;;;;11.90;9.50;;;;;;;;;;5052138;28;20560;-68
2024/03/13 11:44:57;;;;;;;12.83;10.20;;;;;;;;;;5054713;28;20479;-68
2024/03/13 11:47:26;;;;;;;11.93;9.67;;;;;;;;;;5059522;28;20470;-69
2024/03/13 11:49:57;;;;;;;11.43;10.20;;;;;;;;;;5053200;28;21211;-68
2024/03/13 11:52:23;;;;;;;15.77;11.57;;;;;;;;;;5053638;28;20535;-69
2024/03/13 11:54:50;;;;;;;11.60;10.40;;;;;;;;;;5059442;28;20521;-68
2024/03/13 11:57:17;;;;;;;12.77;11.30;;;;;;;;;;5058020;28;20635;-68
2024/03/13 11:59:44;;;;;;;11.23;9.83;;;;;;;;;;5056826;28;20471;-69
2024/03/13 12:02:37;;;;;;;12.73;11.50;;;;;;;;;;5056155;28;20490;-68
2024/03/13 12:05:04;;;;;;;16.27;10.97;;;;;;;;;;5054324;28;20494;-69
2024/03/13 12:07:34;;;;;;;13.93;11.10;;;;;;;;;;5060601;28;20456;-70
2024/03/13 12:10:01;;;;;;;13.63;11.40;;;;;;;;;;5063043;28;20439;-69
2024/03/13 12:12:27;;;;;;;16.30;11.57;;;;;;;;;;5063250;28;20491;-67
2024/03/13 12:14:55;;;;;;;16.03;11.67;;;;;;;;;;5058070;28;20499;-69
2024/03/13 12:17:21;;;;;;;12.80;11.23;;;;;;;;;;5074461;28;20501;-65
2024/03/13 12:19:48;;;;;;;18.40;13.43;;;;;;;;;;5059255;28;20479;-70
2024/03/13 12:22:14;;;;;;;15.53;12.60;;;;;;;;;;5059049;28;20499;-67
2024/03/13 12:24:41;;;;;;;13.47;11.97;;;;;;;;;;5059395;28;20456;-71
2024/03/13 12:27:09;;;;;;;12.97;11.70;;;;;;;;;;5059038;28;20451;-69
2024/03/13 12:29:38;;;;;;;15.13;11.40;;;;;;;;;;5059686;28;20448;-67
2024/03/13 12:32:05;;;;;;;12.73;11.43;;;;;;;;;;5062754;28;20483;-68
2024/03/13 12:34:31;;;;;;;13.40;11.50;;;;;;;;;;5059098;28;20480;-68
2024/03/13 12:36:58;;;;;;;16.53;12.93;;;;;;;;;;5058391;28;20455;-67
2024/03/13 12:39:25;;;;;;;16.70;13.23;;;;;;;;;;5058246;28;20459;-67
2024/03/13 12:41:51;;;;;;;16.10;13.40;;;;;;;;;;5067929;28;20550;-72
2024/03/13 12:44:18;;;;;;;14.43;12.73;;;;;;;;;;5058838;28;20524;-64
2024/03/13 12:46:45;;;;;;;17.20;13.73;;;;;;;;;;5054392;28;20496;-65
2024/03/13 12:49:12;;;;;;;17.80;13.50;;;;;;;;;;5058961;28;20447;-68
2024/03/13 12:51:39;;;;;;;19.50;13.43;;;;;;;;;;5057233;28;20450;-68
2024/03/13 12:54:06;;;;;;;17.27;12.27;;;;;;;;;;5057929;28;20459;-66
2024/03/13 12:56:33;;;;;;;15.17;12.57;;;;;;;;;;5055621;28;20451;-67
2024/03/13 12:58:59;;;;;;;14.90;13.20;;;;;;;;;;5070914;28;20472;-67
2024/03/13 13:01:26;;;;;;;15.10;12.30;;;;;;;;;;5053328;28;20557;-67
2024/03/13 13:03:52;;;;;;;16.43;13.77;;;;;;;;;;5057495;28;21441;-66
2024/03/13 13:06:19;;;;;;;17.57;13.87;;;;;;;;;;5060284;28;20487;-66
2024/03/13 13:08:48;;;;;;;16.90;13.27;;;;;;;;;;5057938;28;20496;-65
2024/03/13 13:11:15;;;;;;;16.27;12.93;;;;;;;;;;5061947;28;20578;-65
2024/03/13 13:13:41;;;;;;;16.03;12.20;;;;;;;;;;5062951;28;20491;-69
2024/03/13 13:16:09;;;;;;;17.33;12.90;;;;;;;;;;5054351;28;20511;-67
2024/03/13 13:18:41;;;;;;;16.50;13.37;;;;;;;;;;5057026;28;20509;-70
2024/03/13 13:21:08;;;;;;;16.20;13.80;;;;;;;;;;5075006;28;20558;-62
2024/03/13 13:23:35;;;;;;;16.07;14.10;;;;;;;;;;5059115;28;20456;-66
2024/03/13 13:26:02;;;;;;;15.47;13.33;;;;;;;;;;5054844;28;20522;-65
2024/03/13 13:28:29;;;;;;;16.57;13.13;;;;;;;;;;5068091;28;20571;-66
2024/03/13 13:30:56;;;;;;;16.10;13.50;;;;;;;;;;5056968;28;20457;-65
2024/03/13 13:33:22;;;;;;;16.57;13.17;;;;;;;;;;5056380;28;20459;-66
2024/03/13 13:35:48;;;;;;;14.23;11.77;;;;;;;;;;5061810;28;20491;-69
2024/03/13 13:38:18;;;;;;;17.17;12.87;;;;;;;;;;5061930;28;20455;-69
2024/03/13 13:40:44;;;;;;;17.20;13.23;;;;;;;;;;5058664;28;20519;-72
2024/03/13 13:43:11;;;;;;;15.70;12.40;;;;;;;;;;5061060;28;20479;-69
2024/03/13 13:45:37;;;;;;;18.53;13.60;;;;;;;;;;5058500;28;20530;-67
2024/03/13 13:48:04;;;;;;;16.17;12.63;;;;;;;;;;5060486;28;20510;-70
2024/03/13 13:50:30;;;;;;;17.70;14.83;;;;;;;;;;5062478;28;20455;-64
2024/03/13 13:52:57;;;;;;;18.17;14.17;;;;;;;;;;5055728;28;20727;-69
2024/03/13 13:55:23;;;;;;;16.27;12.37;;;;;;;;;;5077830;28;20470;-66
2024/03/13 13:57:50;;;;;;;19.50;14.93;;;;;;;;;;5077117;28;21059;-69
2024/03/13 14:00:17;;;;;;;18.30;14.33;;;;;;;;;;5062235;28;20524;-68
2024/03/13 14:02:43;;;;;;;19.33;14.80;;;;;;;;;;5062947;28;20836;-70
2024/03/13 14:05:10;;;;;;;18.43;15.63;;;;;;;;;;5073440;28;20447;-63
2024/03/13 14:07:36;;;;;;;24.67;15.87;;;;;;;;;;5062780;28;20470;-67
2024/03/13 14:10:06;;;;;;;21.07;16.47;;;;;;;;;;5058996;28;20441;-63
2024/03/13 14:12:33;;;;;;;21.10;14.67;;;;;;;;;;5071145;28;20458;-66
2024/03/13 14:15:00;;;;;;;24.83;15.80;;;;;;;;;;5067882;28;20451;-64
2024/03/13 14:17:28;;;;;;;22.17;17.20;;;;;;;;;;5077857;28;20451;-65
2024/03/13 14:19:55;;;;;;;21.80;16.37;;;;;;;;;;5061543;28;20445;-68
2024/03/13 14:22:21;;;;;;;22.70;16.70;;;;;;;;;;5055817;28;20515;-67
2024/03/13 14:24:48;;;;;;;20.90;16.00;;;;;;;;;;5059881;28;20447;-66
2024/03/13 14:27:15;;;;;;;22.00;16.60;;;;;;;;;;5074043;28;20549;-67
2024/03/13 14:29:41;;;;;;;23.40;18.27;;;;;;;;;;5058621;28;20463;-65
2024/03/13 14:32:08;;;;;;;25.07;17.10;;;;;;;;;;5060229;28;20879;-70
2024/03/13 14:34:38;;;;;;;25.23;17.97;;;;;;;;;;5061068;28;20996;-68
2024/03/13 14:37:05;;;;;;;26.30;18.73;;;;;;;;;;5060840;28;20485;-69
2024/03/13 14:39:32;;;;;;;29.20;18.50;;;;;;;;;;5060155;28;20460;-67